Time;durP1;ratioP1;P1;durP2;ratioP2;P2;SDS_P1;SDS_P2;PMS_P1;PMS_P2;Temp;Humidity;BMP_temperature;BMP_pressure;BME280_temperature;BME280_humidity;BME280_pressure;Samples;Min_cycle;Max_cycle;Signal;HPM_P1;HPM_P2
2020/12/12 00:01:22;;;;;;;20.23;12.57;;;;;;;1.89;80.02;98821.91;5006753;28;20226;-66
2020/12/12 00:03:48;;;;;;;20.67;12.53;;;;;;;1.89;79.25;98820.13;5011501;28;20712;-66
2020/12/12 00:06:20;;;;;;;21.20;13.50;;;;;;;1.91;79.96;98827.94;5008264;28;20207;-66
2020/12/12 00:08:46;;;;;;;21.17;12.87;;;;;;;1.91;80.10;98823.53;5007348;28;20203;-66
2020/12/12 00:11:12;;;;;;;24.10;13.90;;;;;;;1.92;79.61;98825.22;5009055;28;20222;-66
2020/12/12 00:13:38;;;;;;;20.23;12.80;;;;;;;1.92;79.63;98819.97;4996247;28;20214;-66
2020/12/12 00:16:06;;;;;;;20.07;12.10;;;;;;;1.94;80.12;98817.25;5009991;28;20208;-66
2020/12/12 00:18:32;;;;;;;19.97;12.50;;;;;;;1.94;80.18;98825.97;5009823;28;20642;-66
2020/12/12 00:20:58;;;;;;;19.53;13.97;;;;;;;1.95;79.66;98821.56;5009228;28;20229;-66
2020/12/12 00:23:24;;;;;;;22.70;13.43;;;;;;;1.95;80.16;98811.06;5008880;28;20306;-66
2020/12/12 00:25:51;;;;;;;19.10;11.90;;;;;;;1.95;79.69;98814.53;5009283;28;20211;-68
2020/12/12 00:28:18;;;;;;;21.97;13.57;;;;;;;1.95;80.21;98809.28;5009783;28;20243;-66
2020/12/12 00:30:44;;;;;;;21.50;13.40;;;;;;;1.95;80.16;98806.66;5009201;28;20223;-66
2020/12/12 00:33:11;;;;;;;21.77;13.07;;;;;;;1.97;79.45;98798.72;5008886;28;20231;-66
2020/12/12 00:35:37;;;;;;;22.50;13.03;;;;;;;1.95;79.46;98801.41;5009246;28;20207;-66
2020/12/12 00:38:03;;;;;;;20.27;11.50;;;;;;;1.95;80.20;98808.44;5008914;28;20215;-65
2020/12/12 00:40:29;;;;;;;21.33;13.03;;;;;;;1.94;79.55;98807.59;5012002;28;20648;-66
2020/12/12 00:42:55;;;;;;;17.83;11.73;;;;;;;1.92;80.18;98819.13;5008075;28;20213;-66
2020/12/12 00:45:21;;;;;;;23.87;13.93;;;;;;;1.92;79.36;98811.25;5008356;28;20239;-66
2020/12/12 00:47:47;;;;;;;19.50;12.80;;;;;;;1.90;79.67;98813.09;5009488;28;20210;-66
2020/12/12 00:50:14;;;;;;;17.60;12.67;;;;;;;1.88;80.17;98810.56;5008869;28;20726;-66
2020/12/12 00:52:41;;;;;;;22.30;13.07;;;;;;;1.88;79.42;98815.81;5008221;28;20206;-66
2020/12/12 00:55:07;;;;;;;21.30;12.73;;;;;;;1.87;80.40;98818.53;5009334;28;20710;-66
2020/12/12 00:57:33;;;;;;;20.23;12.37;;;;;;;1.86;80.15;98817.69;5009618;28;20199;-66
2020/12/12 00:59:59;;;;;;;20.00;13.10;;;;;;;1.88;80.20;98828.09;5010580;28;20834;-65
2020/12/12 01:02:25;;;;;;;20.90;13.07;;;;;;;1.86;79.78;98820.31;5011105;28;20672;-66
2020/12/12 01:04:51;;;;;;;20.83;13.20;;;;;;;1.87;80.20;98808.03;5012893;28;20206;-66
2020/12/12 01:07:22;;;;;;;20.57;13.20;;;;;;;1.87;80.15;98824.63;5013667;28;20217;-66
2020/12/12 01:09:48;;;;;;;22.67;13.30;;;;;;;1.88;80.31;98815.81;5014055;28;20221;-66
2020/12/12 01:12:16;;;;;;;19.70;12.47;;;;;;;1.88;80.61;98818.44;5014054;28;20217;-66
2020/12/12 01:14:43;;;;;;;21.40;13.33;;;;;;;1.89;80.40;98833.25;5013323;28;20226;-66
2020/12/12 01:17:09;;;;;;;24.17;13.73;;;;;;;1.89;80.41;98822.75;5013831;28;20209;-64
2020/12/12 01:19:35;;;;;;;21.67;13.27;;;;;;;1.91;80.11;98825.31;5013131;28;20213;-66
2020/12/12 01:22:01;;;;;;;20.50;12.27;;;;;;;1.91;80.25;98823.53;5011437;28;20223;-67
2020/12/12 01:24:28;;;;;;;20.30;13.77;;;;;;;1.92;80.90;98822.59;5008827;28;20210;-67
2020/12/12 01:26:54;;;;;;;21.53;13.57;;;;;;;1.94;80.21;98819.88;5011601;28;20209;-67
2020/12/12 01:29:20;;;;;;;23.27;13.80;;;;;;;1.94;80.70;98818.09;5005746;28;20211;-67
2020/12/12 01:31:48;;;;;;;24.27;13.83;;;;;;;1.95;80.64;98822.41;5006589;28;20226;-66
2020/12/12 01:34:14;;;;;;;23.77;13.77;;;;;;;1.97;80.46;98830.22;4996828;28;20274;-67
2020/12/12 01:36:40;;;;;;;22.73;13.90;;;;;;;1.98;80.33;98819.59;4992814;28;20211;-68
2020/12/12 01:39:06;;;;;;;20.07;12.90;;;;;;;1.99;80.83;98820.44;5009921;28;20201;-68
2020/12/12 01:41:36;;;;;;;21.77;13.37;;;;;;;2.00;80.58;98825.59;5012693;28;20256;-68
2020/12/12 01:44:02;;;;;;;22.23;13.73;;;;;;;1.99;81.04;98818.66;5013118;28;20195;-67
2020/12/12 01:46:29;;;;;;;21.30;13.30;;;;;;;1.99;81.39;98823.06;5012450;28;20218;-67
2020/12/12 01:48:56;;;;;;;23.77;13.43;;;;;;;1.99;81.27;98821.28;5012916;28;20294;-67
2020/12/12 01:51:25;;;;;;;23.10;13.23;;;;;;;2.00;80.86;98827.38;5013289;28;20222;-67
2020/12/12 01:53:53;;;;;;;23.73;14.23;;;;;;;1.99;80.95;98818.66;5012774;28;20231;-67
2020/12/12 01:56:19;;;;;;;22.17;12.67;;;;;;;1.99;81.51;98829.16;5013519;28;20203;-67
2020/12/12 01:58:46;;;;;;;22.60;14.13;;;;;;;2.00;nan;98825.59;5013532;28;20333;-67
2020/12/12 02:01:13;;;;;;;22.83;13.57;;;;;;;2.01;81.50;98829.91;5012736;28;20318;-67
2020/12/12 02:03:41;;;;;;;20.83;13.27;;;;;;;2.02;81.65;98823.75;5012382;28;20199;-67
2020/12/12 02:06:12;;;;;;;24.33;14.90;;;;;;;2.02;81.73;98815.00;5012840;28;20237;-67
2020/12/12 02:08:38;;;;;;;23.63;13.80;;;;;;;2.02;81.53;98826.38;5012218;28;20675;-67
2020/12/12 02:11:06;;;;;;;25.77;14.77;;;;;;;2.03;81.42;98820.19;5012531;28;20223;-67
2020/12/12 02:13:33;;;;;;;24.37;14.73;;;;;;;2.06;81.49;98819.16;5011858;28;20230;-67
2020/12/12 02:16:00;;;;;;;26.27;14.60;;;;;;;2.07;81.84;98821.69;5012810;28;20306;-67
2020/12/12 02:18:26;;;;;;;24.27;14.63;;;;;;;2.09;82.20;98824.25;5012477;28;20210;-67
2020/12/12 02:20:53;;;;;;;26.13;14.97;;;;;;;2.11;82.05;98824.16;5013292;28;20546;-67
2020/12/12 02:23:20;;;;;;;26.07;14.90;;;;;;;2.10;81.79;98823.31;5011530;28;20211;-67
2020/12/12 02:25:46;;;;;;;23.50;14.50;;;;;;;2.11;82.00;98826.78;5012918;28;20211;-67
2020/12/12 02:28:15;;;;;;;22.30;13.83;;;;;;;2.11;81.83;98832.03;5012375;28;20211;-67
2020/12/12 02:30:41;;;;;;;26.60;15.53;;;;;;;2.11;81.62;98832.88;5012541;28;20234;-67
2020/12/12 02:33:07;;;;;;;23.40;13.83;;;;;;;2.12;82.02;98833.72;5010254;28;20217;-67
2020/12/12 02:35:33;;;;;;;24.47;13.77;;;;;;;2.11;82.22;98835.50;5012697;28;20202;-67
2020/12/12 02:37:59;;;;;;;25.63;15.03;;;;;;;2.13;81.86;98830.16;5012145;28;20579;-67
2020/12/12 02:40:26;;;;;;;22.83;14.07;;;;;;;2.13;82.46;98820.50;5011694;28;20726;-67
2020/12/12 02:42:52;;;;;;;24.73;14.53;;;;;;;2.12;82.70;98823.22;5011775;28;20211;-66
2020/12/12 02:45:19;;;;;;;25.90;15.40;;;;;;;2.12;82.11;98823.22;5011059;28;20201;-67
2020/12/12 02:47:46;;;;;;;23.73;15.27;;;;;;;2.11;82.39;98827.63;5011720;28;20204;-67
2020/12/12 02:50:14;;;;;;;29.30;15.50;;;;;;;2.12;82.41;98817.97;5011497;28;20629;-67
2020/12/12 02:52:45;;;;;;;28.53;15.77;;;;;;;2.13;82.46;98824.91;5011631;28;20227;-67
2020/12/12 02:55:11;;;;;;;26.67;16.03;;;;;;;2.11;82.71;98821.53;5012291;28;20251;-67
2020/12/12 02:57:38;;;;;;;30.37;16.97;;;;;;;2.13;82.55;98820.50;5011652;28;20660;-67
2020/12/12 03:00:08;;;;;;;27.00;15.80;;;;;;;2.14;82.88;98813.47;5011913;28;20226;-67
2020/12/12 03:02:34;;;;;;;29.20;16.60;;;;;;;2.16;82.50;98820.31;5010780;28;20741;-66
2020/12/12 03:05:00;;;;;;;28.43;15.97;;;;;;;2.17;82.34;98822.00;5012079;28;20225;-66
2020/12/12 03:07:26;;;;;;;29.10;16.60;;;;;;;2.18;82.36;98814.97;5011769;28;20203;-66
2020/12/12 03:09:52;;;;;;;26.80;15.73;;;;;;;2.18;82.76;98821.06;5011809;28;20211;-66
2020/12/12 03:12:18;;;;;;;27.60;16.63;;;;;;;2.18;83.23;98825.47;5011459;28;20205;-66
2020/12/12 03:14:45;;;;;;;30.10;16.17;;;;;;;2.18;82.55;98818.44;5011207;28;20227;-67
2020/12/12 03:17:11;;;;;;;25.57;16.73;;;;;;;2.19;82.53;98819.28;5011143;28;20208;-66
2020/12/12 03:19:37;;;;;;;28.70;16.37;;;;;;;2.19;82.57;98811.41;5010399;28;20217;-65
2020/12/12 03:22:03;;;;;;;27.07;15.97;;;;;;;2.19;82.61;98814.03;5011770;28;20642;-65
2020/12/12 03:24:29;;;;;;;29.13;17.13;;;;;;;2.20;82.63;98826.22;5011687;28;20203;-65
2020/12/12 03:26:55;;;;;;;30.70;17.57;;;;;;;2.19;83.21;98824.53;5012147;28;20647;-66
2020/12/12 03:29:21;;;;;;;32.23;16.87;;;;;;;2.19;83.48;98825.38;5011895;28;20203;-66
2020/12/12 03:31:48;;;;;;;26.50;16.50;;;;;;;2.20;83.25;98823.59;5011879;28;20241;-66
2020/12/12 03:34:15;;;;;;;32.13;16.17;;;;;;;2.21;83.51;98826.16;5011249;28;20226;-66
2020/12/12 03:36:41;;;;;;;26.70;15.47;;;;;;;2.20;83.36;98827.06;5010563;28;20213;-66
2020/12/12 03:39:07;;;;;;;30.73;17.33;;;;;;;2.21;82.91;98834.03;5010992;28;20580;-66
2020/12/12 03:41:33;;;;;;;29.57;17.03;;;;;;;2.20;82.94;98827.06;5010715;28;20723;-67
2020/12/12 03:43:59;;;;;;;32.10;18.43;;;;;;;2.21;82.89;98830.56;5011750;28;20590;-66
2020/12/12 03:46:25;;;;;;;29.27;16.73;;;;;;;2.21;83.60;98833.19;5012159;28;20209;-66
2020/12/12 03:48:52;;;;;;;28.23;15.47;;;;;;;2.22;83.95;98830.47;5011661;28;20218;-66
2020/12/12 03:51:18;;;;;;;32.27;16.63;;;;;;;2.22;83.28;98827.00;5012138;28;20233;-66
2020/12/12 03:53:44;;;;;;;27.63;15.63;;;;;;;2.22;83.17;98843.59;5011128;28;20234;-65
2020/12/12 03:56:10;;;;;;;34.40;16.60;;;;;;;2.22;83.33;98840.13;5011368;28;20206;-66
2020/12/12 03:58:36;;;;;;;27.63;16.57;;;;;;;2.22;83.45;98829.63;5011924;28;20205;-66
2020/12/12 04:01:02;;;;;;;32.70;17.17;;;;;;;2.24;83.43;98833.00;5010886;28;20321;-65
2020/12/12 04:03:28;;;;;;;25.57;16.00;;;;;;;2.25;84.01;98835.53;5011786;28;20224;-66
2020/12/12 04:05:55;;;;;;;28.13;16.20;;;;;;;2.26;83.41;98834.63;5010812;28;20213;-66
2020/12/12 04:08:21;;;;;;;30.53;16.70;;;;;;;2.27;83.75;98836.31;5011785;28;20213;-65
2020/12/12 04:10:47;;;;;;;24.93;16.07;;;;;;;2.30;83.87;98845.78;5011578;28;20226;-65
2020/12/12 04:13:13;;;;;;;26.00;15.33;;;;;;;2.30;83.69;98841.38;5010488;28;20583;-65
2020/12/12 04:15:39;;;;;;;26.67;16.27;;;;;;;2.33;83.85;98840.38;5011885;28;20235;-67
2020/12/12 04:18:05;;;;;;;27.80;15.77;;;;;;;2.35;83.86;98851.59;5008770;28;20206;-65
2020/12/12 04:20:31;;;;;;;27.00;15.50;;;;;;;2.36;84.03;98838.38;5009083;28;20223;-67
2020/12/12 04:22:58;;;;;;;28.97;16.50;;;;;;;2.38;83.75;98841.75;5013928;28;20677;-67
2020/12/12 04:25:24;;;;;;;25.57;15.13;;;;;;;2.39;83.61;98842.63;5023729;28;20203;-66
2020/12/12 04:27:50;;;;;;;27.57;15.80;;;;;;;2.41;83.79;98846.00;5012399;28;20213;-65
2020/12/12 04:30:16;;;;;;;27.80;16.20;;;;;;;2.41;83.61;98840.75;5011043;28;20233;-67
2020/12/12 04:32:48;;;;;;;29.27;15.10;;;;;;;2.42;83.77;98842.44;5011755;28;20690;-67
2020/12/12 04:35:14;;;;;;;28.47;15.67;;;;;;;2.42;84.19;98845.06;5010870;28;20744;-67
2020/12/12 04:37:40;;;;;;;27.87;14.90;;;;;;;2.41;83.25;98851.25;5023548;28;20684;-67
2020/12/12 04:40:10;;;;;;;27.20;15.17;;;;;;;2.40;83.41;98841.69;5020524;28;20765;-67
2020/12/12 04:42:36;;;;;;;28.83;16.17;;;;;;;2.39;83.91;98851.34;5015514;28;20245;-68
2020/12/12 04:45:03;;;;;;;29.33;15.97;;;;;;;2.39;83.68;98847.88;5015073;28;20798;-67
2020/12/12 04:47:30;;;;;;;28.77;16.43;;;;;;;2.39;83.76;98847.88;5015214;28;20278;-66
2020/12/12 04:49:57;;;;;;;26.30;15.27;;;;;;;2.38;84.22;98844.41;5015026;28;20530;-67
2020/12/12 04:52:24;;;;;;;24.70;15.20;;;;;;;2.39;83.85;98858.38;5011463;28;20202;-66
2020/12/12 04:54:51;;;;;;;27.97;17.10;;;;;;;2.37;83.78;98855.84;5014337;28;20636;-67
2020/12/12 04:57:18;;;;;;;28.60;16.47;;;;;;;2.36;83.79;98853.28;5015001;28;20209;-67
2020/12/12 04:59:45;;;;;;;28.57;16.90;;;;;;;2.35;84.02;98854.22;5015259;28;20217;-67
2020/12/12 05:02:13;;;;;;;30.60;17.67;;;;;;;2.34;83.77;98852.53;5014751;28;20207;-65
2020/12/12 05:04:40;;;;;;;26.73;15.33;;;;;;;2.32;84.24;98849.19;5015236;28;20651;-67
2020/12/12 05:07:06;;;;;;;28.13;15.80;;;;;;;2.32;84.26;98852.66;5015129;28;20226;-67
2020/12/12 05:09:32;;;;;;;27.63;15.70;;;;;;;2.30;83.57;98853.69;5014853;28;20203;-67
2020/12/12 05:11:58;;;;;;;27.53;16.30;;;;;;;2.31;83.55;98847.47;5014550;28;20234;-66
2020/12/12 05:14:25;;;;;;;24.87;16.50;;;;;;;2.30;84.05;98843.16;5014091;28;20227;-66
2020/12/12 05:16:54;;;;;;;28.23;16.83;;;;;;;2.30;83.85;98848.41;5014786;28;20217;-66
2020/12/12 05:19:21;;;;;;;28.40;16.43;;;;;;;2.30;84.05;98844.00;5014368;28;20207;-66
2020/12/12 05:21:48;;;;;;;31.60;18.13;;;;;;;2.30;83.64;98843.16;5014143;28;20270;-66
2020/12/12 05:24:14;;;;;;;32.17;17.47;;;;;;;2.30;84.41;98853.69;5015055;28;20198;-66
2020/12/12 05:26:41;;;;;;;32.13;17.77;;;;;;;2.31;84.41;98844.84;5014266;28;20609;-66
2020/12/12 05:29:08;;;;;;;28.60;17.60;;;;;;;2.30;84.54;98849.28;5015473;28;20210;-66
2020/12/12 05:31:35;;;;;;;28.13;16.80;;;;;;;2.30;83.71;98856.31;5013986;28;20226;-66
2020/12/12 05:34:10;;;;;;;32.93;17.50;;;;;;;2.30;84.22;98849.28;5014321;28;20736;-66
2020/12/12 05:36:37;;;;;;;31.10;17.10;;;;;;;2.30;84.44;98849.28;5014468;28;20272;-66
2020/12/12 05:39:05;;;;;;;33.07;18.47;;;;;;;2.31;84.56;98847.47;5014695;28;20207;-66
2020/12/12 05:41:33;;;;;;;29.73;17.37;;;;;;;2.32;84.57;98851.81;5013755;28;20344;-67
2020/12/12 05:43:59;;;;;;;28.97;16.67;;;;;;;2.32;83.97;98854.44;5014059;28;20207;-67
2020/12/12 05:46:26;;;;;;;29.03;17.30;;;;;;;2.31;83.88;98850.97;5014446;28;20199;-66
2020/12/12 05:48:53;;;;;;;29.23;16.67;;;;;;;2.32;84.36;98849.19;5012973;28;20211;-66
2020/12/12 05:51:20;;;;;;;27.47;16.60;;;;;;;2.32;84.62;98864.94;5014638;28;20223;-66
2020/12/12 05:53:47;;;;;;;32.27;17.77;;;;;;;2.33;84.64;98856.13;5013422;28;20211;-66
2020/12/12 05:56:14;;;;;;;29.73;16.33;;;;;;;2.34;84.01;98860.41;5014334;28;20217;-66
2020/12/12 05:58:41;;;;;;;32.30;17.63;;;;;;;2.35;84.76;98864.72;5014263;28;20214;-66
2020/12/12 06:01:15;;;;;;;28.37;16.53;;;;;;;2.35;84.88;98857.69;5013706;28;20227;-66
2020/12/12 06:03:52;;;;;;;27.90;17.10;;;;;;;2.36;84.75;98869.06;5014069;28;20284;-66
2020/12/12 06:06:24;;;;;;;32.67;17.93;;;;;;;2.36;84.18;98858.53;5013811;28;20214;-66
2020/12/12 06:09:02;;;;;;;29.37;16.57;;;;;;;2.35;84.41;98855.06;5013894;28;20206;-66
2020/12/12 06:11:30;;;;;;;28.20;16.60;;;;;;;2.36;84.69;98858.53;5013222;28;20223;-66
2020/12/12 06:14:01;;;;;;;27.30;16.63;;;;;;;2.37;84.93;98871.59;5013272;28;20227;-66
2020/12/12 06:16:29;;;;;;;27.03;15.97;;;;;;;2.39;84.77;98874.13;5014190;28;20274;-66
2020/12/12 06:19:17;;;;;;;28.87;17.00;;;;;;;2.41;84.27;98872.28;5013332;28;20210;-66
2020/12/12 06:21:45;;;;;;;29.77;16.97;;;;;;;2.42;84.64;98876.59;5001144;28;20222;-66
2020/12/12 06:24:13;;;;;;;31.33;16.67;;;;;;;2.43;84.54;98878.28;5013095;28;20211;-66
2020/12/12 06:26:48;;;;;;;27.67;16.73;;;;;;;2.42;84.28;98877.44;5013695;28;20660;-66
2020/12/12 06:29:17;;;;;;;30.97;16.87;;;;;;;2.43;84.81;98870.41;5012748;28;20202;-67
2020/12/12 06:31:43;;;;;;;26.13;16.00;;;;;;;2.43;84.96;98866.00;5012921;28;20761;-66
2020/12/12 06:34:10;;;;;;;26.80;16.73;;;;;;;2.44;85.22;98872.09;5013113;28;20312;-66
2020/12/12 06:36:36;;;;;;;27.60;16.13;;;;;;;2.45;85.22;98873.78;5012993;28;20211;-66
2020/12/12 06:39:24;;;;;;;29.30;16.73;;;;;;;2.44;84.33;98875.56;5013480;28;20213;-66
2020/12/12 06:41:52;;;;;;;26.27;16.33;;;;;;;2.44;84.73;98887.88;5009333;28;20261;-66
2020/12/12 06:44:36;;;;;;;25.07;15.80;;;;;;;2.45;84.93;98892.19;5013435;28;20210;-66
2020/12/12 06:47:04;;;;;;;27.37;16.53;;;;;;;2.45;85.01;98886.94;5012587;28;20213;-66
2020/12/12 06:49:30;;;;;;;26.23;16.50;;;;;;;2.46;85.25;98895.66;5013460;28;20227;-66
2020/12/12 06:51:56;;;;;;;27.97;16.23;;;;;;;2.45;84.25;98889.56;5012263;28;20723;-66
2020/12/12 06:54:23;;;;;;;27.23;16.83;;;;;;;2.44;85.09;98887.88;5013200;28;20241;-66
2020/12/12 06:56:50;;;;;;;27.97;17.23;;;;;;;2.43;84.69;98897.53;5007289;28;20210;-66
2020/12/12 06:59:31;;;;;;;28.30;16.90;;;;;;;2.45;84.96;98900.06;5012678;28;20219;-66
2020/12/12 07:01:58;;;;;;;26.47;16.87;;;;;;;2.43;85.14;98899.31;5011773;28;20237;-66
2020/12/12 07:04:29;;;;;;;31.03;17.80;;;;;;;2.43;84.49;98910.66;5012347;28;20215;-66
2020/12/12 07:07:00;;;;;;;32.47;17.70;;;;;;;2.43;85.09;98918.53;5008751;28;20202;-66
2020/12/12 07:09:28;;;;;;;29.00;16.70;;;;;;;2.43;84.44;98915.06;5011878;28;20644;-66
2020/12/12 07:11:56;;;;;;;27.37;18.43;;;;;;;2.43;85.22;98917.69;5011022;28;20575;-66
2020/12/12 07:14:22;;;;;;;27.93;16.40;;;;;;;2.43;84.93;98917.69;5011781;28;20317;-66
2020/12/12 07:16:52;;;;;;;27.90;16.10;;;;;;;2.42;84.38;98916.00;5012907;28;20209;-66
2020/12/12 07:19:31;;;;;;;29.67;16.33;;;;;;;2.41;85.24;98924.81;5012588;28;20672;-66
2020/12/12 07:21:58;;;;;;;28.20;15.97;;;;;;;2.40;85.24;98923.13;5012069;28;20593;-66
2020/12/12 07:24:24;;;;;;;31.70;18.30;;;;;;;2.39;85.01;98929.31;5012241;28;20591;-67
2020/12/12 07:26:52;;;;;;;32.17;17.60;;;;;;;2.39;85.06;98931.94;5011943;28;20214;-66
2020/12/12 07:29:18;;;;;;;27.27;16.80;;;;;;;2.38;84.86;98938.13;5012137;28;20227;-66
2020/12/12 07:31:45;;;;;;;28.33;16.33;;;;;;;2.38;85.07;98930.25;5011550;28;20751;-66
2020/12/12 07:34:11;;;;;;;27.73;15.87;;;;;;;2.39;84.78;98939.81;5012368;28;20308;-66
2020/12/12 07:36:37;;;;;;;30.57;16.90;;;;;;;2.38;85.21;98952.09;5012071;28;20575;-66
2020/12/12 07:39:07;;;;;;;30.20;17.60;;;;;;;2.38;84.61;98946.84;5010917;28;20203;-67
2020/12/12 07:41:43;;;;;;;27.60;16.50;;;;;;;2.40;84.63;98949.41;5008717;28;20234;-69
2020/12/12 07:44:10;;;;;;;27.47;15.77;;;;;;;2.39;84.52;98953.81;5011574;28;20206;-67
2020/12/12 07:46:40;;;;;;;29.70;16.67;;;;;;;2.40;85.30;98958.13;5011370;28;20203;-68
2020/12/12 07:49:07;;;;;;;28.67;16.77;;;;;;;2.41;84.49;98966.84;5011470;28;20301;-67
2020/12/12 07:51:34;;;;;;;28.23;17.07;;;;;;;2.41;84.33;98961.59;5011080;28;20223;-68
2020/12/12 07:54:00;;;;;;;28.50;16.83;;;;;;;2.42;84.81;98965.91;5005511;28;20207;-68
2020/12/12 07:56:29;;;;;;;27.37;16.40;;;;;;;2.41;85.17;98972.94;5010930;28;20289;-68
2020/12/12 07:59:00;;;;;;;27.67;16.63;;;;;;;2.41;84.70;98974.72;5010007;28;20214;-68
2020/12/12 08:01:28;;;;;;;30.77;16.53;;;;;;;2.42;84.75;98968.53;5007701;28;20737;-67
2020/12/12 08:03:54;;;;;;;28.90;15.70;;;;;;;2.43;85.20;98972.88;5008858;28;20213;-67
2020/12/12 08:06:20;;;;;;;27.50;16.33;;;;;;;2.43;84.88;98986.00;5008996;28;20226;-67
2020/12/12 08:08:54;;;;;;;26.43;16.07;;;;;;;2.43;84.49;98986.84;5009920;28;20202;-67
2020/12/12 08:11:20;;;;;;;26.70;17.17;;;;;;;2.43;84.26;98988.63;5017573;28;20230;-67
2020/12/12 08:13:47;;;;;;;26.73;16.83;;;;;;;2.43;84.50;98997.38;5017158;28;20574;-66
2020/12/12 08:16:17;;;;;;;31.73;17.37;;;;;;;2.44;84.64;98995.59;5016802;28;20198;-66
2020/12/12 08:18:43;;;;;;;29.93;17.27;;;;;;;2.44;84.48;98999.06;5025788;28;20209;-66
2020/12/12 08:21:11;;;;;;;25.17;15.83;;;;;;;2.45;85.18;98999.91;5017660;28;20223;-66
2020/12/12 08:23:37;;;;;;;29.73;17.30;;;;;;;2.47;85.07;99003.31;5014765;28;20203;-67
2020/12/12 08:26:05;;;;;;;28.00;16.93;;;;;;;2.48;84.43;99012.88;5007878;28;20583;-65
2020/12/12 08:28:32;;;;;;;29.67;17.57;;;;;;;2.50;84.61;99021.53;5016598;28;20203;-66
2020/12/12 08:31:12;;;;;;;29.23;17.00;;;;;;;2.51;85.26;99019.75;5007901;28;20288;-68
2020/12/12 08:33:38;;;;;;;28.83;16.93;;;;;;;2.51;85.26;99017.13;4998980;28;20217;-67
2020/12/12 08:36:15;;;;;;;26.23;16.37;;;;;;;2.52;84.74;99017.00;5000449;28;20726;-67
2020/12/12 08:38:42;;;;;;;27.17;16.50;;;;;;;2.55;85.02;99029.97;5001178;28;20230;-66
2020/12/12 08:41:13;;;;;;;28.07;17.30;;;;;;;2.58;85.13;99028.97;4998613;28;20257;-66
2020/12/12 08:43:42;;;;;;;28.57;17.20;;;;;;;2.59;84.57;99031.50;4998369;28;20215;-68
2020/12/12 08:46:08;;;;;;;30.63;17.17;;;;;;;2.65;85.05;99035.56;4998643;28;20671;-67
2020/12/12 08:48:36;;;;;;;27.57;17.00;;;;;;;2.66;85.21;99038.13;5001653;28;20313;-67
2020/12/12 08:51:04;;;;;;;30.73;17.47;;;;;;;2.71;85.29;99025.53;5017472;28;20629;-67
2020/12/12 08:53:34;;;;;;;32.07;18.00;;;;;;;2.76;85.57;99041.91;5016097;28;20214;-68
2020/12/12 08:56:05;;;;;;;28.40;17.20;;;;;;;2.81;84.78;99028.50;5016394;28;20237;-68
2020/12/12 08:58:47;;;;;;;29.20;17.93;;;;;;;2.87;85.48;99032.53;5016108;28;20213;-67
2020/12/12 09:01:19;;;;;;;30.13;17.57;;;;;;;2.91;85.72;99034.91;5014811;28;20222;-68
2020/12/12 09:03:56;;;;;;;28.20;16.77;;;;;;;2.96;85.11;99035.50;5014560;28;20217;-67
2020/12/12 09:06:23;;;;;;;27.40;16.80;;;;;;;3.01;85.67;99043.97;5011063;28;20203;-67
2020/12/12 09:09:07;;;;;;;27.83;16.93;;;;;;;3.05;85.02;99050.72;5016097;28;20214;-67
2020/12/12 09:11:34;;;;;;;27.00;16.77;;;;;;;3.11;85.25;99046.91;5015281;28;20234;-67
2020/12/12 09:14:00;;;;;;;32.10;17.97;;;;;;;3.15;85.72;99048.44;5014324;28;20595;-67
2020/12/12 09:16:27;;;;;;;28.90;17.90;;;;;;;3.22;85.96;99059.44;5018032;28;20206;-66
2020/12/12 09:18:53;;;;;;;29.40;18.13;;;;;;;3.25;86.02;99060.09;5016542;28;20221;-67
2020/12/12 09:21:20;;;;;;;28.43;16.80;;;;;;;3.30;85.23;99068.56;5016071;28;20219;-67
2020/12/12 09:23:46;;;;;;;28.30;16.43;;;;;;;3.36;85.80;99068.22;5011719;28;20697;-67
2020/12/12 09:26:14;;;;;;;31.23;17.80;;;;;;;3.40;85.93;99056.56;5010160;28;20209;-67
2020/12/12 09:28:40;;;;;;;25.60;15.50;;;;;;;3.45;85.15;99065.03;4999713;28;20209;-67
2020/12/12 09:31:06;;;;;;;29.03;17.30;;;;;;;3.51;85.95;99060.34;5012033;28;20219;-67
2020/12/12 09:33:33;;;;;;;28.60;17.00;;;;;;;3.56;85.90;99074.94;5012905;28;20303;-67
2020/12/12 09:36:00;;;;;;;26.20;16.63;;;;;;;3.64;85.70;99080.56;5012290;28;20241;-65
2020/12/12 09:38:26;;;;;;;26.80;15.67;;;;;;;3.71;85.46;99074.00;5013079;28;20297;-66
2020/12/12 09:40:52;;;;;;;25.23;16.27;;;;;;;3.77;85.48;99076.25;5012180;28;20250;-67
2020/12/12 09:43:19;;;;;;;26.97;16.50;;;;;;;3.83;85.95;99078.53;5013015;28;20203;-66
2020/12/12 09:45:47;;;;;;;24.57;16.03;;;;;;;3.90;85.84;99081.66;5008075;28;20202;-67
2020/12/12 09:48:13;;;;;;;28.40;16.57;;;;;;;3.97;85.46;99087.38;5011006;28;20286;-67
2020/12/12 09:50:40;;;;;;;27.43;15.70;;;;;;;4.05;85.30;99099.13;5008311;28;20223;-67
2020/12/12 09:53:08;;;;;;;26.97;16.93;;;;;;;4.10;85.19;99091.81;5003076;28;20207;-67
2020/12/12 09:55:35;;;;;;;24.63;15.37;;;;;;;4.16;85.48;99096.69;5008721;28;20250;-67
2020/12/12 09:58:04;;;;;;;27.93;16.53;;;;;;;4.21;85.01;99092.91;5012198;28;20581;-67
2020/12/12 10:00:32;;;;;;;25.90;15.67;;;;;;;4.24;85.47;99098.84;5012075;28;20233;-67
2020/12/12 10:02:58;;;;;;;25.70;16.00;;;;;;;4.30;85.18;99102.91;5005339;28;20203;-67
2020/12/12 10:05:24;;;;;;;24.70;14.60;;;;;;;4.33;84.86;99103.53;5010266;28;20207;-68
2020/12/12 10:07:50;;;;;;;25.90;16.13;;;;;;;4.36;84.84;99102.50;5009913;28;20226;-67
2020/12/12 10:10:16;;;;;;;22.83;15.07;;;;;;;4.38;84.93;99105.88;5011067;28;20219;-69
2020/12/12 10:12:42;;;;;;;26.83;15.23;;;;;;;4.40;84.23;99099.59;5010529;28;20207;-67
2020/12/12 10:15:08;;;;;;;26.30;15.23;;;;;;;4.45;84.36;99105.44;5010976;28;20219;-67
2020/12/12 10:17:35;;;;;;;24.87;15.13;;;;;;;4.48;84.60;99099.94;5012653;28;20297;-66
2020/12/12 10:20:01;;;;;;;24.07;13.93;;;;;;;4.54;84.20;99106.63;5006402;28;20707;-66
2020/12/12 10:22:28;;;;;;;23.20;14.60;;;;;;;4.56;83.62;99103.88;5002272;28;20207;-67
2020/12/12 10:24:54;;;;;;;22.20;14.27;;;;;;;4.62;83.62;99106.16;5008408;28;20277;-67
2020/12/12 10:27:20;;;;;;;20.93;13.90;;;;;;;4.65;83.71;99100.69;5011578;28;20570;-66
2020/12/12 10:29:46;;;;;;;22.80;14.00;;;;;;;4.67;83.06;99110.16;5006781;28;20218;-66
2020/12/12 10:32:12;;;;;;;25.27;14.90;;;;;;;4.69;83.21;99116.19;5011396;28;20392;-67
2020/12/12 10:34:39;;;;;;;20.60;13.70;;;;;;;4.73;83.16;99114.22;5004781;28;20337;-68
2020/12/12 10:37:05;;;;;;;30.40;15.00;;;;;;;4.75;82.84;99120.22;5004967;28;20317;-67
2020/12/12 10:39:33;;;;;;;23.07;13.30;;;;;;;4.79;82.39;99116.47;5001338;28;20207;-66
2020/12/12 10:42:00;;;;;;;21.13;13.37;;;;;;;4.83;82.22;99120.59;4994277;28;20270;-67
2020/12/12 10:44:26;;;;;;;20.90;13.50;;;;;;;4.85;82.42;99127.44;4996108;28;20333;-67
2020/12/12 10:46:52;;;;;;;18.40;12.63;;;;;;;4.89;81.75;99122.84;4994802;28;20509;-67
2020/12/12 10:49:19;;;;;;;22.23;14.47;;;;;;;4.92;81.73;99127.06;4993419;28;20203;-67
2020/12/12 10:51:48;;;;;;;20.17;13.43;;;;;;;4.94;81.33;99130.44;4996286;28;20231;-68
2020/12/12 10:54:15;;;;;;;21.13;13.03;;;;;;;4.97;81.21;99128.47;4997528;28;20274;-64
2020/12/12 10:56:43;;;;;;;18.57;12.73;;;;;;;4.99;81.47;99133.66;4995882;28;20211;-65
2020/12/12 10:59:09;;;;;;;18.00;11.87;;;;;;;5.00;80.84;99122.16;4996469;28;20213;-67
2020/12/12 11:01:35;;;;;;;20.37;12.67;;;;;;;5.03;80.89;99135.97;4997330;28;20224;-67
2020/12/12 11:04:01;;;;;;;17.07;12.07;;;;;;;5.05;80.69;99125.31;4997161;28;20207;-67
2020/12/12 11:06:27;;;;;;;20.80;13.47;;;;;;;5.07;80.63;99126.06;4994244;28;20214;-67
2020/12/12 11:08:54;;;;;;;19.87;13.47;;;;;;;5.10;80.62;99129.38;4994445;28;20215;-68
2020/12/12 11:11:20;;;;;;;17.30;11.90;;;;;;;5.12;80.51;99131.91;4998252;28;20227;-65
2020/12/12 11:13:46;;;;;;;19.37;12.87;;;;;;;5.14;80.19;99135.28;4995705;28;20217;-64
2020/12/12 11:16:17;;;;;;;16.10;12.13;;;;;;;5.14;79.70;99141.41;4997237;28;20278;-67
2020/12/12 11:18:43;;;;;;;17.07;11.77;;;;;;;5.16;79.78;99139.53;4995803;28;20584;-67
2020/12/12 11:21:09;;;;;;;18.00;11.57;;;;;;;5.19;79.60;99136.69;4994945;28;20329;-66
2020/12/12 11:23:35;;;;;;;18.87;12.77;;;;;;;5.23;79.61;99138.16;4992602;28;20209;-65
2020/12/12 11:26:02;;;;;;;18.73;11.67;;;;;;;5.26;79.72;99137.13;4995770;28;20248;-66